Time;durP1;ratioP1;P1;durP2;ratioP2;P2;SDS_P1;SDS_P2;PMS_P1;PMS_P2;Temp;Humidity;BMP_temperature;BMP_pressure;BME280_temperature;BME280_humidity;BME280_pressure;Samples;Min_cycle;Max_cycle;Signal;HPM_P1;HPM_P2
2022/11/14 00:01:48;;;;;;;1999.90;999.90;;;;;;;5.72;100.00;101278.09;5023462;28;20097;-76
2022/11/14 00:04:32;;;;;;;1999.90;999.90;;;;;;;5.72;100.00;101272.88;5008863;28;20542;-76
2022/11/14 00:07:16;;;;;;;1999.90;999.90;;;;;;;5.78;100.00;101278.25;5027300;28;20057;-76
2022/11/14 00:10:00;;;;;;;1999.90;999.90;;;;;;;5.83;100.00;101273.13;5022726;28;20092;-76
2022/11/14 00:12:44;;;;;;;1999.90;999.90;;;;;;;5.80;100.00;101271.31;5021323;28;20049;-77
2022/11/14 00:15:28;;;;;;;1999.90;999.90;;;;;;;5.80;100.00;101270.44;5019602;28;20080;-76
2022/11/14 00:18:12;;;;;;;1999.90;999.90;;;;;;;5.82;100.00;101271.38;5023987;28;20614;-75
2022/11/14 00:20:56;;;;;;;1999.90;999.90;;;;;;;5.84;100.00;101267.03;5024498;28;20041;-75
2022/11/14 00:23:40;;;;;;;1999.90;999.90;;;;;;;5.78;100.00;101275.63;5022970;28;20052;-74
2022/11/14 00:26:24;;;;;;;1999.90;999.90;;;;;;;5.75;100.00;101278.19;5021161;28;20041;-75
2022/11/14 00:29:10;;;;;;;1999.90;999.90;;;;;;;5.69;100.00;101268.44;5022312;28;20127;-75
2022/11/14 00:31:54;;;;;;;1999.90;999.90;;;;;;;5.72;100.00;101267.63;5022870;28;20522;-75
2022/11/14 00:34:38;;;;;;;1999.90;999.90;;;;;;;5.76;100.00;101261.59;5023240;28;20052;-75
2022/11/14 00:37:21;;;;;;;1999.90;999.90;;;;;;;5.87;100.00;101267.13;5025907;28;20063;-75
2022/11/14 00:40:06;;;;;;;1999.90;999.90;;;;;;;5.99;100.00;101261.34;5021946;28;20052;-75
2022/11/14 00:42:50;;;;;;;1999.90;999.90;;;;;;;6.08;100.00;101254.59;5025241;28;20570;-75
2022/11/14 00:45:34;;;;;;;1999.90;999.90;;;;;;;6.12;100.00;101253.78;5022602;28;20503;-75
2022/11/14 00:48:17;;;;;;;1999.90;999.90;;;;;;;6.17;100.00;101246.03;5026729;28;20068;-75
2022/11/14 00:51:01;;;;;;;1999.90;999.90;;;;;;;6.20;100.00;101234.75;5024833;28;20125;-75
2022/11/14 00:53:45;;;;;;;1999.90;999.90;;;;;;;6.17;100.00;101232.94;5010904;28;20117;-75
2022/11/14 00:56:29;;;;;;;1999.90;999.90;;;;;;;6.15;100.00;101227.66;5020633;28;20417;-75
2022/11/14 00:59:13;;;;;;;1999.90;999.90;;;;;;;6.16;100.00;101231.19;5021753;28;20053;-74
2022/11/14 01:01:57;;;;;;;1999.90;999.90;;;;;;;6.12;100.00;101224.97;5021877;28;20048;-75
2022/11/14 01:04:41;;;;;;;1999.90;999.90;;;;;;;6.14;100.00;101231.13;5023167;28;20572;-75
2022/11/14 01:07:24;;;;;;;1999.90;999.90;;;;;;;6.11;100.00;101219.69;5011375;28;20067;-75
2022/11/14 01:10:08;;;;;;;1999.90;999.90;;;;;;;6.07;100.00;101216.09;5020409;28;20045;-75
2022/11/14 01:12:52;;;;;;;1999.90;999.90;;;;;;;5.97;100.00;101218.47;5019459;28;20112;-75
2022/11/14 01:15:41;;;;;;;1999.90;999.90;;;;;;;5.85;100.00;101217.31;5021951;28;20049;-75
2022/11/14 01:18:25;;;;;;;1999.90;999.90;;;;;;;5.58;100.00;101207.06;5023819;28;20056;-75
2022/11/14 01:21:11;;;;;;;1999.90;999.90;;;;;;;5.42;100.00;101207.50;5022766;28;20081;-75
2022/11/14 01:23:55;;;;;;;1999.90;999.90;;;;;;;5.26;100.00;101199.25;5022662;28;20098;-75
2022/11/14 01:26:39;;;;;;;1999.90;999.90;;;;;;;5.13;100.00;101191.91;5020778;28;20063;-75
2022/11/14 01:29:23;;;;;;;1999.90;999.90;;;;;;;4.97;100.00;101189.75;5022671;28;20100;-75
2022/11/14 01:32:07;;;;;;;1999.90;999.90;;;;;;;4.88;100.00;101190.38;5018171;28;20066;-75
2022/11/14 01:34:51;;;;;;;1999.90;999.90;;;;;;;4.74;100.00;101176.94;5021940;28;20115;-74
2022/11/14 01:37:35;;;;;;;1999.90;999.90;;;;;;;4.65;100.00;101179.28;5024397;28;20526;-75
2022/11/14 01:40:19;;;;;;;1999.90;999.90;;;;;;;4.58;100.00;101174.72;5021108;28;20053;-75
2022/11/14 01:43:15;;;;;;;1999.90;999.90;;;;;;;4.52;100.00;101162.34;5019740;28;20238;-75
2022/11/14 01:46:19;;;;;;;1999.90;999.90;;;;;;;4.45;100.00;101168.25;5021397;28;20057;-77
2022/11/14 01:49:38;;;;;;;1999.90;999.90;;;;;;;4.38;100.00;101167.19;5021702;28;20139;-76
2022/11/14 01:52:29;;;;;;;1999.90;999.90;;;;;;;4.35;100.00;101161.00;5021193;28;20112;-77
2022/11/14 01:55:13;;;;;;;1999.90;999.90;;;;;;;4.31;100.00;101153.91;5018395;28;20640;-76
2022/11/14 01:57:58;;;;;;;1999.90;999.90;;;;;;;4.31;100.00;101149.56;5021910;28;20091;-77
2022/11/14 02:00:43;;;;;;;1999.90;999.90;;;;;;;4.41;100.00;101142.88;5024238;28;20044;-77
2022/11/14 02:03:27;;;;;;;1999.90;999.90;;;;;;;4.54;100.00;101142.38;5022322;28;20044;-77
2022/11/14 02:06:14;;;;;;;1999.90;999.90;;;;;;;4.69;100.00;101141.00;5020677;28;20411;-77
2022/11/14 02:09:03;;;;;;;1999.90;999.90;;;;;;;4.80;100.00;101127.41;5023245;28;20132;-77
2022/11/14 02:11:49;;;;;;;1999.90;999.90;;;;;;;4.88;100.00;101126.75;5077148;22;20053;-74
2022/11/14 02:14:35;;;;;;;1999.90;999.90;;;;;;;4.93;100.00;101114.66;5020910;28;20570;-74
2022/11/14 02:17:20;;;;;;;1999.90;999.90;;;;;;;4.91;100.00;101111.13;5022343;28;20467;-74
2022/11/14 02:20:10;;;;;;;1999.90;999.90;;;;;;;4.82;100.00;101110.03;5024857;28;20048;-74
2022/11/14 02:22:54;;;;;;;1999.90;999.90;;;;;;;4.70;100.00;101103.59;5008085;28;20080;-74
2022/11/14 02:25:38;;;;;;;1999.90;999.90;;;;;;;4.56;100.00;101098.88;5002504;28;20040;-74
2022/11/14 02:28:23;;;;;;;1999.90;999.90;;;;;;;4.46;100.00;101094.22;5005986;28;20472;-74
2022/11/14 02:31:07;;;;;;;1999.90;999.90;;;;;;;4.35;100.00;101091.31;5009864;28;20416;-74
2022/11/14 02:33:51;;;;;;;1999.90;999.90;;;;;;;4.28;100.00;101088.50;5006394;28;20053;-74
2022/11/14 02:36:35;;;;;;;1999.90;999.90;;;;;;;4.23;100.00;101087.47;5007191;28;20049;-74
2022/11/14 02:39:19;;;;;;;1999.90;999.90;;;;;;;4.20;100.00;101103.94;5003747;28;20105;-74
2022/11/14 02:42:03;;;;;;;1999.90;999.90;;;;;;;4.17;100.00;101094.28;5001399;28;20050;-74
2022/11/14 02:44:47;;;;;;;1999.90;999.90;;;;;;;4.12;100.00;101095.88;5004649;28;20053;-74
2022/11/14 02:47:31;;;;;;;1999.90;999.90;;;;;;;4.07;100.00;101081.81;5006117;28;20091;-74
2022/11/14 02:50:16;;;;;;;1999.90;999.90;;;;;;;4.02;100.00;101087.75;5004495;28;20122;-74
2022/11/14 02:52:59;;;;;;;1999.90;999.90;;;;;;;3.97;100.00;101078.88;5000591;28;20048;-74
2022/11/14 02:55:43;;;;;;;1999.90;999.90;;;;;;;3.94;100.00;101074.47;5000858;28;20532;-74
2022/11/14 02:58:27;;;;;;;1999.90;999.90;;;;;;;3.93;100.00;101078.81;5004895;28;20050;-74
2022/11/14 03:01:11;;;;;;;1999.90;999.90;;;;;;;3.91;100.00;101079.59;4989444;28;20425;-74
2022/11/14 03:03:56;;;;;;;1999.90;999.90;;;;;;;3.87;100.00;101073.38;5004312;28;20061;-74
2022/11/14 03:06:40;;;;;;;1999.90;999.90;;;;;;;3.88;100.00;101077.78;5008422;28;20103;-74
2022/11/14 03:09:24;;;;;;;1999.90;999.90;;;;;;;3.86;100.00;101079.44;5003400;28;20128;-74
2022/11/14 03:12:08;;;;;;;1999.90;999.90;;;;;;;3.88;100.00;101069.94;5007520;28;20095;-74
2022/11/14 03:14:52;;;;;;;1999.90;999.90;;;;;;;3.88;100.00;101069.06;5004116;28;20109;-74
2022/11/14 03:17:36;;;;;;;1999.90;999.90;;;;;;;3.89;100.00;101071.69;5005716;28;20455;-74
2022/11/14 03:20:20;;;;;;;1999.90;999.90;;;;;;;3.92;100.00;101069.19;5004043;28;20429;-74
2022/11/14 03:23:04;;;;;;;1999.90;999.90;;;;;;;3.90;100.00;101064.75;4985269;28;20104;-74
2022/11/14 03:25:48;;;;;;;1999.90;999.90;;;;;;;3.89;100.00;101066.47;5000586;28;20096;-75
2022/11/14 03:28:32;;;;;;;1999.90;999.90;;;;;;;3.87;100.00;101073.38;5004873;28;20096;-74
2022/11/14 03:31:16;;;;;;;1999.90;999.90;;;;;;;3.84;100.00;101062.84;5004208;28;20117;-74
2022/11/14 03:34:00;;;;;;;1999.90;999.90;;;;;;;3.81;100.00;101065.38;5003686;28;20045;-74
2022/11/14 03:36:44;;;;;;;1999.90;999.90;;;;;;;3.82;100.00;101069.75;5012984;28;20570;-74
2022/11/14 03:39:28;;;;;;;1999.90;999.90;;;;;;;3.85;100.00;101063.72;5003370;28;20045;-75
2022/11/14 03:42:12;;;;;;;1999.90;999.90;;;;;;;3.79;100.00;101069.66;5003442;28;20053;-74
2022/11/14 03:44:56;;;;;;;1999.90;999.90;;;;;;;3.79;100.00;101061.81;5003772;28;20161;-74
2022/11/14 03:47:40;;;;;;;1999.90;999.90;;;;;;;3.78;100.00;101065.28;5005599;28;20101;-74
2022/11/14 03:50:24;;;;;;;1999.90;999.90;;;;;;;3.78;100.00;101064.41;4999903;28;20073;-74
2022/11/14 03:53:08;;;;;;;1999.90;999.90;;;;;;;3.78;100.00;101062.66;5006838;28;20076;-74
2022/11/14 03:55:53;;;;;;;1999.90;999.90;;;;;;;3.80;100.00;101055.78;5002340;28;20037;-74
2022/11/14 03:58:37;;;;;;;1999.90;999.90;;;;;;;3.80;100.00;101050.56;5004271;28;20088;-74
2022/11/14 04:01:21;;;;;;;1999.90;999.90;;;;;;;3.82;100.00;101048.84;5006309;28;20076;-74
2022/11/14 04:04:05;;;;;;;1999.90;999.90;;;;;;;3.84;100.00;101046.31;5003532;28;20057;-73
2022/11/14 04:06:49;;;;;;;1999.90;999.90;;;;;;;3.86;100.00;101047.22;5003152;28;20048;-74
2022/11/14 04:09:32;;;;;;;1999.90;999.90;;;;;;;3.88;100.00;101054.28;5002888;28;20524;-74
2022/11/14 04:12:17;;;;;;;1999.90;999.90;;;;;;;3.90;100.00;101050.00;5003511;28;20044;-73
2022/11/14 04:15:01;;;;;;;1999.90;999.90;;;;;;;3.89;100.00;101042.97;5003046;28;20053;-74
2022/11/14 04:17:46;;;;;;;1999.90;999.90;;;;;;;3.94;100.00;101044.00;5005797;28;20099;-74
2022/11/14 04:20:30;;;;;;;1999.90;999.90;;;;;;;3.96;100.00;101038.84;4999371;28;20053;-74
2022/11/14 04:23:14;;;;;;;1999.90;999.90;;;;;;;3.98;100.00;101038.84;4999750;28;20049;-74
2022/11/14 04:25:58;;;;;;;1999.90;999.90;;;;;;;3.98;100.00;101034.50;5005324;28;20052;-74
2022/11/14 04:28:41;;;;;;;1999.90;999.90;;;;;;;3.97;100.00;101037.97;5002448;28;20073;-74
2022/11/14 04:31:25;;;;;;;1999.90;999.90;;;;;;;3.98;100.00;101031.91;5003266;28;20069;-73
2022/11/14 04:34:09;;;;;;;1999.90;999.90;;;;;;;3.98;100.00;101029.28;5003287;28;20129;-74
2022/11/14 04:36:53;;;;;;;1999.90;999.90;;;;;;;4.02;100.00;101030.28;5008847;28;20095;-74
2022/11/14 04:39:37;;;;;;;1999.90;999.90;;;;;;;4.04;100.00;101018.16;5011528;28;20041;-74
2022/11/14 04:42:21;;;;;;;1999.90;999.90;;;;;;;4.05;100.00;101012.06;5006831;28;20091;-74
2022/11/14 04:45:06;;;;;;;1999.90;999.90;;;;;;;4.07;100.00;101013.88;5007082;28;20041;-74
2022/11/14 04:47:50;;;;;;;1999.90;999.90;;;;;;;4.07;100.00;101016.50;5009599;28;20060;-74
2022/11/14 04:50:34;;;;;;;1999.90;999.90;;;;;;;4.15;100.00;101017.59;5005682;28;20554;-74
2022/11/14 04:53:18;;;;;;;1999.90;999.90;;;;;;;4.15;100.00;101006.28;5009070;28;20045;-74
2022/11/14 04:56:02;;;;;;;1999.90;999.90;;;;;;;4.17;100.00;101005.47;5007863;28;20049;-74
2022/11/14 04:58:46;;;;;;;1999.90;999.90;;;;;;;4.18;100.00;101002.00;5008636;28;20173;-74
2022/11/14 05:01:30;;;;;;;1999.90;999.90;;;;;;;4.20;100.00;101002.06;5006510;28;20049;-73
2022/11/14 05:04:13;;;;;;;1999.90;999.90;;;;;;;4.21;100.00;101000.31;5005523;28;20096;-74
2022/11/14 05:06:57;;;;;;;1999.90;999.90;;;;;;;4.20;100.00;100985.50;5009630;28;20128;-74
2022/11/14 05:09:41;;;;;;;1999.90;999.90;;;;;;;4.18;100.00;100978.50;5006601;28;20041;-74
2022/11/14 05:12:25;;;;;;;1999.90;999.90;;;;;;;4.20;100.00;100973.31;5009172;28;20472;-74
2022/11/14 05:15:09;;;;;;;1999.90;999.90;;;;;;;4.22;100.00;100975.94;5003079;28;20460;-74
2022/11/14 05:17:55;;;;;;;1999.90;999.90;;;;;;;4.24;100.00;100985.59;5005734;28;20516;-74
2022/11/14 05:20:39;;;;;;;1999.90;999.90;;;;;;;4.23;100.00;100978.63;5002102;28;20045;-74
2022/11/14 05:23:23;;;;;;;1999.90;999.90;;;;;;;4.23;100.00;100969.91;5006976;28;20112;-73
2022/11/14 05:26:13;;;;;;;1999.90;999.90;;;;;;;4.25;100.00;100970.84;5007891;28;20041;-72
2022/11/14 05:28:57;;;;;;;1999.90;999.90;;;;;;;4.27;100.00;100977.88;5010214;28;20053;-73
2022/11/14 05:31:41;;;;;;;1999.90;999.90;;;;;;;4.26;100.00;100972.59;5009496;28;20460;-73
2022/11/14 05:34:25;;;;;;;1999.90;999.90;;;;;;;4.25;100.00;100981.28;5001528;28;20049;-74
2022/11/14 05:37:09;;;;;;;1999.90;999.90;;;;;;;4.22;100.00;100984.69;5008783;28;20416;-73
2022/11/14 05:39:53;;;;;;;1999.90;999.90;;;;;;;4.18;100.00;100980.22;5009671;28;20052;-73
2022/11/14 05:42:37;;;;;;;1999.90;999.90;;;;;;;4.14;100.00;100994.06;5010002;28;20552;-73
2022/11/14 05:45:21;;;;;;;1999.90;999.90;;;;;;;4.13;100.00;100981.81;5011890;28;20048;-73
2022/11/14 05:48:05;;;;;;;1999.90;999.90;;;;;;;4.05;100.00;100978.13;5011593;28;20430;-73
2022/11/14 05:50:53;;;;;;;1999.90;999.90;;;;;;;4.02;100.00;100993.72;5011692;28;20036;-73
2022/11/14 05:53:38;;;;;;;1999.90;999.90;;;;;;;3.95;100.00;100993.53;5006380;28;20175;-73
2022/11/14 05:56:22;;;;;;;1999.90;999.90;;;;;;;3.93;100.00;100995.22;5010877;28;20072;-72
2022/11/14 05:59:06;;;;;;;1999.90;999.90;;;;;;;3.92;100.00;101001.28;5010758;28;20473;-72
2022/11/14 06:01:49;;;;;;;1999.90;999.90;;;;;;;3.90;100.00;100999.47;5006713;28;20044;-72
2022/11/14 06:04:33;;;;;;;1999.90;999.90;;;;;;;3.85;100.00;101003.66;5011258;28;20081;-72
2022/11/14 06:07:17;;;;;;;1999.90;999.90;;;;;;;3.81;100.00;101005.31;5014575;28;20084;-73
2022/11/14 06:10:01;;;;;;;1999.90;999.90;;;;;;;3.79;100.00;101003.50;5007880;28;20548;-72
2022/11/14 06:12:46;;;;;;;1999.90;999.90;;;;;;;3.77;100.00;101005.19;5003776;28;20044;-72
2022/11/14 06:15:30;;;;;;;1999.90;999.90;;;;;;;3.72;100.00;101003.34;5004905;28;20416;-73
2022/11/14 06:18:14;;;;;;;1999.90;999.90;;;;;;;3.70;100.00;101007.63;5004899;28;20104;-72
2022/11/14 06:21:03;;;;;;;1999.90;999.90;;;;;;;3.70;100.00;101023.28;5015042;28;20049;-72
2022/11/14 06:23:48;;;;;;;1999.90;999.90;;;;;;;3.68;100.00;101024.97;5008072;28;20040;-72
2022/11/14 06:26:32;;;;;;;1999.90;999.90;;;;;;;3.66;100.00;101018.78;4998735;28;20076;-73
2022/11/14 06:29:15;;;;;;;1999.90;999.90;;;;;;;3.65;100.00;101019.66;5000089;28;20052;-72
2022/11/14 06:31:59;;;;;;;1999.90;999.90;;;;;;;3.65;100.00;101016.16;4994270;28;20053;-72
2022/11/14 06:34:43;;;;;;;1999.90;999.90;;;;;;;3.64;100.00;101020.50;5006766;28;20044;-72
2022/11/14 06:37:27;;;;;;;1999.90;999.90;;;;;;;3.64;100.00;101020.50;5006407;28;20057;-72
2022/11/14 06:40:11;;;;;;;1999.90;999.90;;;;;;;3.64;100.00;101030.03;5004644;28;20080;-72
2022/11/14 06:42:55;;;;;;;1999.90;999.90;;;;;;;3.63;100.00;101030.88;5004308;28;20053;-72
2022/11/14 06:45:39;;;;;;;1999.90;999.90;;;;;;;3.61;100.00;101036.03;5008989;28;20184;-72
2022/11/14 06:48:23;;;;;;;1999.90;999.90;;;;;;;3.56;100.00;101034.13;5008241;28;20044;-72
2022/11/14 06:51:11;;;;;;;1999.90;999.90;;;;;;;3.59;100.00;101036.84;5001487;28;20045;-73
2022/11/14 06:53:55;;;;;;;1999.90;999.90;;;;;;;3.62;100.00;101035.22;5004161;28;20056;-72
2022/11/14 06:56:38;;;;;;;1999.90;999.90;;;;;;;3.65;100.00;101034.44;5000312;28;20044;-72
2022/11/14 06:59:22;;;;;;;1999.90;999.90;;;;;;;3.67;100.00;101032.75;5004190;28;20173;-72
2022/11/14 07:02:11;;;;;;;1999.90;999.90;;;;;;;3.71;100.00;101026.78;5003991;28;20042;-72
2022/11/14 07:04:55;;;;;;;1999.90;999.90;;;;;;;3.72;100.00;101023.31;4989626;28;20073;-72
2022/11/14 07:07:39;;;;;;;1999.90;999.90;;;;;;;3.80;100.00;101027.06;5006413;28;20058;-72
2022/11/14 07:10:23;;;;;;;1999.90;999.90;;;;;;;3.83;100.00;101021.91;5004148;28;20424;-72
2022/11/14 07:13:08;;;;;;;1999.90;999.90;;;;;;;3.88;100.00;101024.66;4987794;28;20420;-72
2022/11/14 07:15:53;;;;;;;1999.90;999.90;;;;;;;3.92;100.00;101024.78;5000159;28;20096;-72
2022/11/14 07:18:36;;;;;;;1999.90;999.90;;;;;;;3.94;100.00;101023.09;5009483;28;20063;-72
2022/11/14 07:21:20;;;;;;;1999.90;999.90;;;;;;;3.95;100.00;101019.63;5004849;28;20121;-72
2022/11/14 07:24:05;;;;;;;1999.90;999.90;;;;;;;3.98;100.00;101024.06;5004492;28;20065;-72
2022/11/14 07:26:49;;;;;;;1999.90;999.90;;;;;;;4.04;100.00;101026.88;5003729;28;20052;-72
2022/11/14 07:29:33;;;;;;;1999.90;999.90;;;;;;;4.09;100.00;101022.66;5001519;28;20104;-72
2022/11/14 07:32:17;;;;;;;1999.90;999.90;;;;;;;4.14;100.00;101030.63;5000700;28;20054;-72
2022/11/14 07:35:04;;;;;;;1999.90;999.90;;;;;;;4.20;100.00;101035.13;5003869;28;20041;-72
2022/11/14 07:37:49;;;;;;;1999.90;999.90;;;;;;;4.25;100.00;101028.31;5007804;28;20076;-73
2022/11/14 07:40:33;;;;;;;1999.90;999.90;;;;;;;4.28;100.00;101024.06;5003620;28;20045;-72
2022/11/14 07:43:17;;;;;;;1999.90;999.90;;;;;;;4.31;100.00;101020.63;5004000;28;20085;-72
2022/11/14 07:46:04;;;;;;;1999.90;999.90;;;;;;;4.34;100.00;101013.75;5000284;28;20045;-72
2022/11/14 07:48:48;;;;;;;1999.90;999.90;;;;;;;4.38;100.00;101015.63;5003206;28;20052;-72
2022/11/14 07:51:32;;;;;;;1999.90;999.90;;;;;;;4.44;100.00;101014.00;4987620;28;20072;-72
2022/11/14 07:54:16;;;;;;;1999.90;999.90;;;;;;;4.46;100.00;101012.34;5003627;28;20093;-72
2022/11/14 07:57:00;;;;;;;1999.90;999.90;;;;;;;4.53;100.00;101009.00;5005503;28;20069;-72
2022/11/14 07:59:44;;;;;;;1999.90;999.90;;;;;;;4.56;100.00;101004.75;4998875;28;20057;-73
2022/11/14 08:02:28;;;;;;;1999.90;999.90;;;;;;;4.64;100.00;101011.91;4999594;28;20092;-72
2022/11/14 08:05:12;;;;;;;1999.90;999.90;;;;;;;4.71;100.00;100999.03;5004515;28;20064;-73
2022/11/14 08:07:56;;;;;;;1999.90;999.90;;;;;;;4.80;100.00;100993.16;5010236;28;20463;-72
2022/11/14 08:10:40;;;;;;;1999.90;999.90;;;;;;;4.92;100.00;100989.94;4999192;28;20092;-72
2022/11/14 08:13:25;;;;;;;1999.90;999.90;;;;;;;5.04;100.00;100993.75;5006707;28;20613;-72
2022/11/14 08:16:09;;;;;;;1999.90;999.90;;;;;;;5.15;100.00;100986.13;5006568;28;20053;-72
2022/11/14 08:18:54;;;;;;;1999.90;999.90;;;;;;;5.21;100.00;100981.06;5037020;22;20084;-77
2022/11/14 08:21:38;;;;;;;825.13;532.97;;;;;;;5.33;100.00;100979.56;5030076;28;20459;-77
2022/11/14 08:24:21;;;;;;;1999.90;999.90;;;;;;;5.45;100.00;100990.31;5014159;28;20527;-77
2022/11/14 08:27:05;;;;;;;1999.90;999.90;;;;;;;5.60;100.00;100979.28;5023778;28;20523;-75
2022/11/14 08:29:52;;;;;;;1999.90;999.90;;;;;;;5.69;100.00;100980.34;5007088;28;20092;-75
2022/11/14 08:32:36;;;;;;;1999.90;999.90;;;;;;;5.78;100.00;100987.50;5003344;28;20053;-75
2022/11/14 08:35:21;;;;;;;1999.90;999.90;;;;;;;5.87;100.00;100984.22;5003359;28;20049;-76
2022/11/14 08:38:05;;;;;;;1999.90;999.90;;;;;;;5.91;100.00;100970.31;5011684;28;20041;-75
2022/11/14 08:40:49;;;;;;;1999.90;999.90;;;;;;;6.01;100.00;100981.91;5007974;28;20093;-75
2022/11/14 08:43:33;;;;;;;1999.90;999.90;;;;;;;6.09;100.00;100970.69;5013757;28;20040;-75
2022/11/14 08:46:17;;;;;;;1999.90;999.90;;;;;;;6.17;100.00;100962.97;5007321;28;20057;-75
2022/11/14 08:49:01;;;;;;;1999.90;999.90;;;;;;;6.23;100.00;100967.44;5008955;28;20472;-75
2022/11/14 08:51:45;;;;;;;1999.90;999.90;;;;;;;6.32;100.00;100967.63;5008247;28;20040;-75
2022/11/14 08:54:29;;;;;;;1999.90;999.90;;;;;;;6.41;100.00;100961.66;5006698;28;20471;-75
2022/11/14 08:57:14;;;;;;;1999.90;999.90;;;;;;;6.47;100.00;100969.63;5007082;28;20515;-75
2022/11/14 08:59:57;;;;;;;1999.90;999.90;;;;;;;6.55;100.00;100949.69;5009109;28;20152;-75
2022/11/14 09:02:41;;;;;;;1999.90;999.90;;;;;;;6.59;100.00;100965.47;5005501;28;20168;-75
2022/11/14 09:05:25;;;;;;;1999.90;999.90;;;;;;;6.70;100.00;100964.78;5004615;28;20141;-76
2022/11/14 09:08:09;;;;;;;1999.90;999.90;;;;;;;6.80;100.00;100948.34;5009149;28;20065;-75
2022/11/14 09:10:53;;;;;;;1999.90;999.90;;;;;;;6.89;100.00;100958.06;5009644;28;20049;-76
2022/11/14 09:13:37;;;;;;;1999.90;999.90;;;;;;;6.97;100.00;100939.00;5002460;28;20476;-76
2022/11/14 09:16:21;;;;;;;1999.90;999.90;;;;;;;7.04;100.00;100937.31;5001906;28;20088;-75
2022/11/14 09:19:05;;;;;;;1999.90;999.90;;;;;;;7.13;100.00;100944.47;5002796;28;20072;-75
2022/11/14 09:21:49;;;;;;;1999.90;999.90;;;;;;;7.21;100.00;100938.47;4997192;28;20077;-75
2022/11/14 09:24:33;;;;;;;1999.90;999.90;;;;;;;7.28;100.00;100938.53;5006830;28;20431;-75
2022/11/14 09:27:17;;;;;;;1999.90;999.90;;;;;;;7.39;100.00;100944.84;5006852;28;20088;-75
2022/11/14 09:30:00;;;;;;;1999.90;999.90;;;;;;;7.50;100.00;100942.34;5006067;28;20048;-75
2022/11/14 09:32:44;;;;;;;1999.90;999.90;;;;;;;7.58;100.00;100940.69;5004626;28;20060;-75
2022/11/14 09:35:30;;;;;;;1999.90;999.90;;;;;;;7.66;100.00;100942.53;5006777;28;20735;-75
2022/11/14 09:38:13;;;;;;;1999.90;999.90;;;;;;;7.79;100.00;100938.31;5007914;28;20417;-75
2022/11/14 09:41:25;;;;;;;1999.90;999.90;;;;;;;7.97;100.00;100934.16;5003904;28;20049;-75
2022/11/14 09:44:24;;;;;;;1999.90;999.90;;;;;;;8.09;100.00;100931.63;5000991;28;20080;-75
2022/11/14 09:47:13;;;;;;;1999.90;999.90;;;;;;;8.20;100.00;100930.00;5005662;28;20462;-75
2022/11/14 09:50:09;;;;;;;1999.90;999.90;;;;;;;8.35;100.00;100924.88;5003279;28;20487;-76
2022/11/14 09:53:00;;;;;;;1999.90;999.90;;;;;;;8.51;100.00;100919.78;5002741;28;20794;-75
2022/11/14 09:55:44;;;;;;;1999.90;999.90;;;;;;;8.63;100.00;100917.25;4987281;28;20057;-75
2022/11/14 09:58:28;;;;;;;1999.90;999.90;;;;;;;8.80;100.00;100913.88;5002649;28;20087;-75
2022/11/14 10:01:27;;;;;;;1999.90;999.90;;;;;;;8.92;100.00;100906.06;4990989;28;20052;-75
2022/11/14 10:04:24;;;;;;;1999.90;999.90;;;;;;;9.07;100.00;100915.84;5007666;28;20531;-75
2022/11/14 10:07:39;;;;;;;1999.90;999.90;;;;;;;9.21;100.00;100914.16;5010085;28;20049;-75
2022/11/14 10:10:49;;;;;;;1999.90;999.90;;;;;;;9.37;100.00;100921.25;5005210;28;20119;-75
2022/11/14 10:13:55;;;;;;;1999.90;999.90;;;;;;;9.49;100.00;100911.66;5002944;28;20439;-75
2022/11/14 10:16:59;;;;;;;1999.90;999.90;;;;;;;9.81;100.00;100901.22;5008573;28;20101;-75
2022/11/14 10:20:00;;;;;;;1999.90;999.90;;;;;;;10.03;100.00;100892.50;5004643;28;20127;-75
2022/11/14 10:23:03;;;;;;;1999.90;999.90;;;;;;;10.19;100.00;100897.78;5007645;28;20471;-75
2022/11/14 10:25:53;;;;;;;1999.90;999.90;;;;;;;10.35;100.00;100891.69;5001342;28;20125;-75
2022/11/14 10:28:53;;;;;;;1999.90;999.90;;;;;;;10.46;100.00;100881.13;5010134;28;20530;-75
2022/11/14 10:31:56;;;;;;;1999.90;999.90;;;;;;;10.60;99.60;100889.03;5006601;28;20116;-75
2022/11/14 10:35:02;;;;;;;1999.90;999.90;;;;;;;10.65;98.80;100887.28;5002756;28;20128;-75
2022/11/14 10:38:05;;;;;;;1999.90;999.90;;;;;;;10.73;97.51;100890.78;5012968;28;20073;-76
2022/11/14 10:40:53;;;;;;;1999.90;999.90;;;;;;;10.80;96.43;100878.47;5004636;28;20092;-75
2022/11/14 10:43:46;;;;;;;1999.90;999.90;;;;;;;10.87;93.90;100872.28;5005864;28;20258;-76
2022/11/14 10:46:40;;;;;;;1999.90;999.90;;;;;;;11.02;92.96;100866.09;5004681;28;20053;-75
2022/11/14 10:49:25;;;;;;;1999.90;999.90;;;;;;;11.00;92.65;100867.84;5004314;28;20130;-75
2022/11/14 10:52:16;;;;;;;1999.90;999.90;;;;;;;10.98;92.14;100870.50;5001258;28;20092;-76
2022/11/14 10:55:16;;;;;;;1999.90;999.90;;;;;;;11.00;91.64;100883.69;5003499;28;20054;-76
2022/11/14 10:58:01;;;;;;;1999.90;999.90;;;;;;;10.94;91.63;100887.25;4991894;28;20045;-75
2022/11/14 11:00:44;;;;;;;1999.90;999.90;;;;;;;10.99;92.59;100879.31;5004337;28;20187;-75
2022/11/14 11:03:43;;;;;;;1999.90;999.90;;;;;;;11.09;91.56;100889.84;5003308;28;20479;-75
2022/11/14 11:06:27;;;;;;;1999.90;999.90;;;;;;;11.15;91.98;100896.88;5004631;28;20156;-76
2022/11/14 11:12:24;;;;;;;1999.90;999.90;;;;;;;11.29;91.04;100878.31;5001894;28;20057;-76
2022/11/14 11:15:18;;;;;;;1999.90;999.90;;;;;;;11.34;88.91;100874.81;5001696;28;20051;-75
2022/11/14 11:18:26;;;;;;;1999.90;999.90;;;;;;;11.43;88.99;100873.88;5008071;28;20044;-75
2022/11/14 11:21:13;;;;;;;1999.90;999.90;;;;;;;11.50;89.46;100866.78;5002883;28;20053;-76
2022/11/14 11:23:57;;;;;;;1999.90;999.90;;;;;;;11.47;86.87;100865.03;5009108;28;20516;-76
2022/11/14 11:26:40;;;;;;;1999.90;999.90;;;;;;;11.53;87.01;100864.16;5010345;28;20144;-76
2022/11/14 11:29:24;;;;;;;1999.90;999.90;;;;;;;11.54;86.03;100861.50;5007810;28;20052;-76
2022/11/14 11:32:09;;;;;;;1999.90;999.90;;;;;;;11.54;85.75;100860.63;5007192;28;20443;-76
2022/11/14 11:34:55;;;;;;;1999.90;999.90;;;;;;;11.59;85.98;100869.41;5008120;28;20589;-75
2022/11/14 11:37:44;;;;;;;1999.90;999.90;;;;;;;11.71;86.49;100858.78;5010061;28;20115;-76
2022/11/14 11:40:29;;;;;;;1999.90;999.90;;;;;;;11.85;85.58;100851.63;5007897;28;20065;-76
2022/11/14 11:43:30;;;;;;;1999.90;999.90;;;;;;;11.91;84.70;100850.72;5005462;28;20100;-76
2022/11/14 11:46:21;;;;;;;1999.90;999.90;;;;;;;12.15;85.37;100844.38;4995702;28;20468;-76
2022/11/14 11:49:15;;;;;;;1999.90;999.90;;;;;;;12.25;84.16;100845.19;5008059;28;20052;-76
2022/11/14 11:52:04;;;;;;;1999.90;999.90;;;;;;;12.34;83.22;100860.13;4999756;28;20073;-75
2022/11/14 11:54:59;;;;;;;1999.90;999.90;;;;;;;12.38;82.35;100845.97;5007487;28;20103;-76
2022/11/14 11:57:50;;;;;;;1999.90;999.90;;;;;;;12.54;82.78;100838.78;5004964;28;20100;-76
2022/11/14 12:00:34;;;;;;;1999.90;999.90;;;;;;;12.56;80.53;100835.22;5003528;28;20057;-75
2022/11/14 12:03:19;;;;;;;1999.90;999.90;;;;;;;12.60;80.59;100834.31;5005754;28;20591;-75
2022/11/14 12:06:17;;;;;;;1999.90;999.90;;;;;;;12.59;79.15;100827.25;5004511;28;20148;-76
2022/11/14 12:09:21;;;;;;;1999.90;999.90;;;;;;;12.80;79.71;100838.53;5000004;28;20084;-76
2022/11/14 12:12:17;;;;;;;1999.90;999.90;;;;;;;12.86;78.97;100843.75;5001034;28;20129;-75
2022/11/14 12:15:20;;;;;;;1999.90;999.90;;;;;;;12.96;79.69;100842.75;5006494;28;20049;-76